createdAt,value
2018-02-03T00:01:45.388Z,100213.97
2018-02-03T00:04:11.390Z,100221.74
2018-02-03T00:06:37.337Z,100217.73
2018-02-03T00:09:03.305Z,100220.43
2018-02-03T00:11:29.258Z,100222.83
2018-02-03T00:13:55.199Z,100222.28
2018-02-03T00:16:21.132Z,100218.11
2018-02-03T00:18:47.081Z,100217.19
2018-02-03T00:21:13.041Z,100219.69
2018-02-03T00:23:38.991Z,100218.29
2018-02-03T00:26:04.941Z,100216.33
2018-02-03T00:28:30.909Z,100222.97
2018-02-03T00:30:56.858Z,100215.47
2018-02-03T00:33:22.792Z,100225.10
2018-02-03T00:35:48.921Z,100223.55
2018-02-03T00:38:14.862Z,100223.46
2018-02-03T00:40:40.805Z,100223.36
2018-02-03T00:43:06.745Z,100223.55
2018-02-03T00:45:32.704Z,100225.87
2018-02-03T00:47:58.642Z,100226.55
2018-02-03T00:50:24.592Z,100227.02
2018-02-03T00:52:50.529Z,100226.81
2018-02-03T00:55:16.589Z,100221.50
2018-02-03T00:57:42.555Z,100219.63
2018-02-03T01:00:08.564Z,100216.83
2018-02-03T01:02:34.507Z,100215.56
2018-02-03T01:05:00.458Z,100207.98
2018-02-03T01:07:26.468Z,100214.05
2018-02-03T01:09:52.403Z,100208.28
2018-02-03T01:12:18.353Z,100206.61
2018-02-03T01:14:44.288Z,100209.19
2018-02-03T01:17:10.324Z,100209.98
2018-02-03T01:19:36.301Z,100209.61
2018-02-03T01:22:02.241Z,100208.70
2018-02-03T01:24:28.209Z,100212.92
2018-02-03T01:26:54.158Z,100212.78
2018-02-03T01:29:20.129Z,100215.09
2018-02-03T01:31:46.082Z,100221.64
2018-02-03T01:34:12.041Z,100218.91
2018-02-03T01:36:37.981Z,100227.23
2018-02-03T01:39:03.946Z,100231.48
2018-02-03T01:41:29.936Z,100243.38
2018-02-03T01:43:55.905Z,100235.39
2018-02-03T01:46:21.853Z,100231.53
2018-02-03T01:48:47.802Z,100230.35
2018-02-03T01:51:13.765Z,100230.50
2018-02-03T01:53:39.721Z,100231.22
2018-02-03T01:56:05.677Z,100233.89
2018-02-03T01:58:31.621Z,100237.92
2018-02-03T02:00:57.558Z,100238.84
2018-02-03T02:03:23.502Z,100235.34
2018-02-03T02:05:49.448Z,100234.61
2018-02-03T02:08:15.431Z,100238.80
2018-02-03T02:10:41.380Z,100248.00
2018-02-03T02:13:07.342Z,100239.09
2018-02-03T02:15:33.282Z,100250.41
2018-02-03T02:17:59.239Z,100248.22
2018-02-03T02:20:25.185Z,100249.23
2018-02-03T02:22:51.173Z,100248.92
2018-02-03T02:25:17.192Z,100251.19
2018-02-03T02:27:43.120Z,100243.60
2018-02-03T02:30:09.098Z,100247.38
2018-02-03T02:32:35.041Z,100248.89
2018-02-03T02:35:01.013Z,100242.73
2018-02-03T02:37:26.981Z,100243.55
2018-02-03T02:39:53.101Z,100246.33
2018-02-03T02:42:19.054Z,100244.51
2018-02-03T02:44:45.006Z,100243.28
2018-02-03T02:47:10.946Z,100247.14
2018-02-03T02:49:36.894Z,100243.42
2018-02-03T02:52:02.853Z,100247.17
2018-02-03T02:54:28.877Z,100241.00
2018-02-03T02:56:54.820Z,100245.91
2018-02-03T02:59:20.878Z,100238.25
2018-02-03T03:01:46.819Z,100241.60
2018-02-03T03:04:12.777Z,100236.94
2018-02-03T03:06:38.725Z,100238.41
2018-02-03T03:09:04.672Z,100247.40
2018-02-03T03:11:30.641Z,100245.20
2018-02-03T03:13:56.590Z,100243.23
2018-02-03T03:16:22.554Z,100238.33
2018-02-03T03:18:48.498Z,100243.69
2018-02-03T03:21:14.458Z,100240.78
2018-02-03T03:23:40.421Z,100237.70
2018-02-03T03:26:06.393Z,100244.00
2018-02-03T03:28:32.364Z,100244.22
2018-02-03T03:30:58.308Z,100236.92
2018-02-03T03:33:24.246Z,100236.45
2018-02-03T03:35:50.201Z,100232.05
2018-02-03T03:38:16.157Z,100235.24
2018-02-03T03:40:42.101Z,100232.78
2018-02-03T03:43:08.042Z,100233.78
2018-02-03T03:45:33.993Z,100231.47
2018-02-03T03:47:59.941Z,100237.83
2018-02-03T03:50:25.899Z,100236.19
2018-02-03T03:52:51.840Z,100235.01
2018-02-03T03:55:17.789Z,100237.42
2018-02-03T03:57:43.737Z,100234.59
2018-02-03T04:00:09.681Z,100233.47
2018-02-03T04:02:35.641Z,100231.41
2018-02-03T04:05:01.602Z,100232.69
2018-02-03T04:07:27.561Z,100233.37
2018-02-03T04:09:53.553Z,100227.69
2018-02-03T04:12:19.496Z,100223.30
2018-02-03T04:14:45.466Z,100233.47
2018-02-03T04:17:11.417Z,100233.37
2018-02-03T04:19:37.364Z,100230.09
2018-02-03T04:22:03.316Z,100230.42
2018-02-03T04:24:29.280Z,100225.98
2018-02-03T04:26:55.308Z,100230.42
2018-02-03T04:29:21.254Z,100226.42
2018-02-03T04:31:47.439Z,100224.75
2018-02-03T04:34:13.378Z,100228.02
2018-02-03T04:36:39.320Z,100225.14
2018-02-03T04:39:05.269Z,100221.74
2018-02-03T04:41:31.226Z,100223.38
2018-02-03T04:43:57.188Z,100226.80
2018-02-03T04:46:23.181Z,100220.39
2018-02-03T04:48:49.133Z,100214.77
2018-02-03T04:51:15.081Z,100214.44
2018-02-03T04:53:41.046Z,100218.02
2018-02-03T04:56:06.999Z,100212.34
2018-02-03T04:58:32.972Z,100217.16
2018-02-03T05:00:58.916Z,100205.37
2018-02-03T05:03:24.921Z,100206.73
2018-02-03T05:05:50.873Z,100204.23
2018-02-03T05:08:16.814Z,100198.45
2018-02-03T05:10:42.910Z,100202.30
2018-02-03T05:13:08.861Z,100202.72
2018-02-03T05:15:34.837Z,100199.42
2018-02-03T05:18:00.801Z,100201.42
2018-02-03T05:20:26.774Z,100197.69
2018-02-03T05:22:52.710Z,100197.86
2018-02-03T05:25:18.669Z,100195.96
2018-02-03T05:27:44.637Z,100199.17
2018-02-03T05:30:10.589Z,100197.33
2018-02-03T05:32:36.523Z,100198.82
2018-02-03T05:35:02.466Z,100187.47
2018-02-03T05:37:28.409Z,100190.59
2018-02-03T05:39:54.473Z,100191.66
2018-02-03T05:42:20.418Z,100187.33
2018-02-03T05:44:46.393Z,100181.45
2018-02-03T05:47:12.343Z,100188.78
2018-02-03T05:49:38.305Z,100190.29
2018-02-03T05:52:04.265Z,100183.63
2018-02-03T05:54:30.217Z,100192.00
2018-02-03T05:56:56.181Z,100186.05
2018-02-03T05:59:22.124Z,100182.97
2018-02-03T06:01:48.061Z,100183.70
2018-02-03T06:04:14.084Z,100178.80
2018-02-03T06:06:40.014Z,100177.84
2018-02-03T06:09:05.957Z,100173.81
2018-02-03T06:11:31.930Z,100173.70
2018-02-03T06:13:57.889Z,100180.08
2018-02-03T06:16:23.893Z,100176.05
2018-02-03T06:18:49.873Z,100175.36
2018-02-03T06:21:15.816Z,100179.45
2018-02-03T06:23:41.771Z,100172.28
2018-02-03T06:26:07.732Z,100169.27
2018-02-03T06:28:33.668Z,100177.58
2018-02-03T06:30:59.617Z,100173.78
2018-02-03T06:33:25.549Z,100172.71
2018-02-03T06:35:51.509Z,100172.89
2018-02-03T06:38:17.471Z,100174.30
2018-02-03T06:40:43.427Z,100175.64
2018-02-03T06:43:09.378Z,100175.03
2018-02-03T06:45:35.319Z,100184.11
2018-02-03T06:48:01.312Z,100177.47
2018-02-03T06:50:27.340Z,100178.08
2018-02-03T06:52:53.280Z,100175.20
2018-02-03T06:55:19.253Z,100173.52
2018-02-03T06:57:45.205Z,100174.56
2018-02-03T07:00:11.158Z,100175.03
2018-02-03T07:02:37.141Z,100165.40
2018-02-03T07:05:03.209Z,100168.11
2018-02-03T07:07:29.149Z,100173.39
2018-02-03T07:09:55.093Z,100182.61
2018-02-03T07:12:21.067Z,100179.31
2018-02-03T07:14:47.009Z,100177.84
2018-02-03T07:17:12.973Z,100173.43
2018-02-03T07:19:38.909Z,100177.97
2018-02-03T07:22:04.877Z,100176.40
2018-02-03T07:24:30.831Z,100175.58
2018-02-03T07:26:56.853Z,100181.44
2018-02-03T07:29:22.785Z,100182.48
2018-02-03T07:31:48.730Z,100179.86
2018-02-03T07:34:14.765Z,100182.80
2018-02-03T07:36:40.716Z,100183.17
2018-02-03T07:39:06.734Z,100186.17
2018-02-03T07:41:32.761Z,100184.09
2018-02-03T07:43:58.728Z,100188.77
2018-02-03T07:46:24.685Z,100184.66
2018-02-03T07:48:50.632Z,100185.71
2018-02-03T07:51:16.580Z,100185.44
2018-02-03T07:53:42.518Z,100179.94
2018-02-03T07:56:08.469Z,100175.81
2018-02-03T07:58:34.409Z,100174.87
2018-02-03T08:01:00.365Z,100175.55
2018-02-03T08:03:26.320Z,100178.72
2018-02-03T08:05:52.359Z,100177.67
2018-02-03T08:08:18.308Z,100179.18
2018-02-03T08:10:44.262Z,100171.00
2018-02-03T08:13:10.229Z,100172.91
2018-02-03T08:15:36.183Z,100177.70
2018-02-03T08:18:02.152Z,100178.44
2018-02-03T08:20:28.113Z,100179.02
2018-02-03T08:22:54.068Z,100177.13
2018-02-03T08:25:20.026Z,100168.58
2018-02-03T08:27:45.964Z,100163.63
2018-02-03T08:30:12.021Z,100163.08
2018-02-03T08:32:38.003Z,100170.67
2018-02-03T08:35:03.950Z,100161.27
2018-02-03T08:37:29.958Z,100163.72
2018-02-03T08:39:55.856Z,100156.94
2018-02-03T08:42:21.796Z,100159.28
2018-02-03T08:44:47.776Z,100160.50
2018-02-03T08:47:13.746Z,100156.23
2018-02-03T08:49:39.689Z,100157.41
2018-02-03T08:52:05.734Z,100148.96
2018-02-03T08:54:31.666Z,100153.47
2018-02-03T08:56:57.720Z,100155.87
2018-02-03T08:59:23.754Z,100159.41
2018-02-03T09:01:49.778Z,100159.18
2018-02-03T09:04:15.801Z,100165.59
2018-02-03T09:06:41.837Z,100154.55
2018-02-03T09:09:07.832Z,100162.14
2018-02-03T09:11:33.910Z,100158.59
2018-02-03T09:13:59.846Z,100162.15
2018-02-03T09:16:25.790Z,100161.64
2018-02-03T09:18:51.740Z,100162.20
2018-02-03T09:21:17.702Z,100168.60
2018-02-03T09:23:43.653Z,100162.87
2018-02-03T09:26:09.605Z,100166.10
2018-02-03T09:28:35.565Z,100154.70
2018-02-03T09:31:01.618Z,100163.38
2018-02-03T09:33:27.584Z,100162.14
2018-02-03T09:35:53.541Z,100161.33
2018-02-03T09:38:19.584Z,100165.22
2018-02-03T09:40:45.633Z,100158.91
2018-02-03T09:43:11.585Z,100150.09
2018-02-03T09:45:37.541Z,100149.36
2018-02-03T09:48:03.481Z,100144.63
2018-02-03T09:50:29.452Z,100149.55
2018-02-03T09:52:55.405Z,100143.60
2018-02-03T09:55:21.421Z,100144.92
2018-02-03T09:57:47.362Z,100142.88
2018-02-03T10:00:13.312Z,100147.14
2018-02-03T10:02:39.257Z,100144.83
2018-02-03T10:05:05.218Z,100138.33
2018-02-03T10:07:31.153Z,100144.51
2018-02-03T10:09:57.119Z,100144.74
2018-02-03T10:12:23.065Z,100141.89
2018-02-03T10:14:49.016Z,100141.09
2018-02-03T10:17:15.049Z,100136.41
2018-02-03T10:19:41.849Z,100132.02
2018-02-03T10:22:07.830Z,100135.25
2018-02-03T10:24:34.521Z,100137.30
2018-02-03T10:27:00.548Z,100125.21
2018-02-03T10:29:27.286Z,100130.11
2018-02-03T10:31:53.501Z,100129.05
2018-02-03T10:34:19.494Z,100123.48
2018-02-03T10:36:45.575Z,100122.11
2018-02-03T10:39:11.686Z,100130.28
2018-02-03T10:41:38.619Z,100128.61
2018-02-03T10:44:04.699Z,100127.06
2018-02-03T10:46:30.775Z,100124.02
2018-02-03T10:48:56.744Z,100124.48
2018-02-03T10:51:22.729Z,100130.55
2018-02-03T10:53:48.825Z,100130.20
2018-02-03T10:56:15.765Z,100127.15
2018-02-03T10:58:41.726Z,100126.36
2018-02-03T11:01:08.008Z,100126.42
2018-02-03T11:03:34.037Z,100125.39
2018-02-03T11:06:00.097Z,100125.34
2018-02-03T11:08:26.094Z,100120.70
2018-02-03T11:10:52.088Z,100120.06
2018-02-03T11:13:18.049Z,100120.54
2018-02-03T11:15:43.998Z,100110.23
2018-02-03T11:18:09.929Z,100108.20
2018-02-03T11:20:35.876Z,100107.06
2018-02-03T11:23:01.831Z,100096.29
2018-02-03T11:25:27.751Z,100099.22
2018-02-03T11:27:53.717Z,100095.88
2018-02-03T11:30:19.657Z,100100.05
2018-02-03T11:32:45.630Z,100098.55
2018-02-03T11:35:11.582Z,100093.99
2018-02-03T11:37:37.582Z,100096.02
2018-02-03T11:40:03.525Z,100091.63
2018-02-03T11:42:29.482Z,100093.33
2018-02-03T11:44:55.446Z,100100.77
2018-02-03T11:47:21.403Z,100097.04
2018-02-03T11:49:47.357Z,100093.33
2018-02-03T11:52:13.336Z,100095.06
2018-02-03T11:54:39.445Z,100092.77
2018-02-03T11:57:05.409Z,100089.92
2018-02-03T11:59:31.360Z,100089.05
2018-02-03T12:01:57.452Z,100094.00
2018-02-03T12:04:23.438Z,100091.05
2018-02-03T12:06:49.412Z,100088.88
2018-02-03T12:09:15.377Z,100092.27
2018-02-03T12:11:41.329Z,100086.30
2018-02-03T12:14:07.401Z,100084.83
2018-02-03T12:16:33.351Z,100086.30
2018-02-03T12:18:59.385Z,100082.91
2018-02-03T12:21:25.368Z,100078.19
2018-02-03T12:23:51.333Z,100079.88
2018-02-03T12:26:17.426Z,100079.21
2018-02-03T12:28:43.393Z,100079.20
2018-02-03T12:31:09.366Z,100080.03
2018-02-03T12:33:35.300Z,100071.84
2018-02-03T12:36:01.245Z,100073.48
2018-02-03T12:38:27.196Z,100075.45
2018-02-03T12:40:53.162Z,100073.29
2018-02-03T12:43:19.126Z,100074.17
2018-02-03T12:45:45.098Z,100074.42
2018-02-03T12:48:11.052Z,100073.83
2018-02-03T12:50:37.025Z,100070.65
2018-02-03T12:53:02.985Z,100071.78
2018-02-03T12:55:29.195Z,100071.95
2018-02-03T12:57:55.161Z,100074.16
2018-02-03T13:00:21.108Z,100076.29
2018-02-03T13:02:47.202Z,100067.58
2018-02-03T13:05:13.230Z,100069.27
2018-02-03T13:07:39.189Z,100066.54
2018-02-03T13:10:05.152Z,100068.78
2018-02-03T13:12:31.102Z,100070.38
2018-02-03T13:14:57.053Z,100065.03
2018-02-03T13:17:23.008Z,100065.22
2018-02-03T13:19:48.972Z,100066.97
2018-02-03T13:22:14.924Z,100061.75
2018-02-03T13:24:40.899Z,100055.72
2018-02-03T13:27:06.873Z,100050.23
2018-02-03T13:29:32.806Z,100046.35
2018-02-03T13:31:58.776Z,100048.00
2018-02-03T13:34:24.723Z,100041.64
2018-02-03T13:36:50.669Z,100043.59
2018-02-03T13:39:16.630Z,100043.06
2018-02-03T13:41:42.595Z,100042.89
2018-02-03T13:44:08.579Z,100038.94
2018-02-03T13:46:34.561Z,100031.41
2018-02-03T13:49:00.592Z,100030.33
2018-02-03T13:51:26.585Z,100028.44
2018-02-03T13:53:52.493Z,100025.32
2018-02-03T13:56:18.448Z,100027.53
2018-02-03T13:58:44.401Z,100028.53
2018-02-03T14:01:10.369Z,100023.73
2018-02-03T14:03:36.424Z,100025.20
2018-02-03T14:06:02.390Z,100031.38
2018-02-03T14:08:28.344Z,100033.39
2018-02-03T14:10:54.318Z,100034.67
2018-02-03T14:13:20.283Z,100031.16
2018-02-03T14:15:46.241Z,100031.64
2018-02-03T14:18:12.217Z,100035.53
2018-02-03T14:20:38.188Z,100036.33
2018-02-03T14:23:04.124Z,100039.62
2018-02-03T14:25:30.097Z,100037.33
2018-02-03T14:27:56.151Z,100040.69
2018-02-03T14:30:22.085Z,100040.15
2018-02-03T14:32:48.028Z,100034.69
2018-02-03T14:35:13.981Z,100039.70
2018-02-03T14:37:39.963Z,100032.05
2018-02-03T14:40:05.914Z,100031.31
2018-02-03T14:42:31.897Z,100022.30
2018-02-03T14:44:57.880Z,100022.66
2018-02-03T14:47:23.842Z,100025.85
2018-02-03T14:49:49.784Z,100025.63
2018-02-03T14:52:15.745Z,100035.59
2018-02-03T14:54:41.701Z,100028.48
2018-02-03T14:57:07.649Z,100031.13
2018-02-03T14:59:33.629Z,100030.56
2018-02-03T15:01:59.589Z,100024.63
2018-02-03T15:04:25.533Z,100026.34
2018-02-03T15:06:51.505Z,100023.23
2018-02-03T15:09:17.457Z,100022.13
2018-02-03T15:11:43.435Z,100023.78
2018-02-03T15:14:09.372Z,100024.34
2018-02-03T15:16:35.346Z,100019.42
2018-02-03T15:19:01.337Z,100018.50
2018-02-03T15:21:27.326Z,100020.23
2018-02-03T15:23:53.329Z,100019.50
2018-02-03T15:26:19.274Z,100018.59
2018-02-03T15:28:45.222Z,100026.80
2018-02-03T15:31:11.298Z,100026.54
2018-02-03T15:33:37.244Z,100023.20
2018-02-03T15:36:03.210Z,100021.38
2018-02-03T15:38:29.157Z,100028.88
2018-02-03T15:40:55.129Z,100027.06
2018-02-03T15:43:21.095Z,100028.14
2018-02-03T15:45:47.044Z,100028.96
2018-02-03T15:48:13.010Z,100028.75
2018-02-03T15:50:38.993Z,100027.60
2018-02-03T15:53:04.996Z,100027.56
2018-02-03T15:55:30.929Z,100024.36
2018-02-03T15:57:56.878Z,100022.27
2018-02-03T16:00:22.854Z,100028.67
2018-02-03T16:02:48.811Z,100030.43
2018-02-03T16:05:14.781Z,100033.59
2018-02-03T16:07:40.886Z,100028.85
2018-02-03T16:10:06.836Z,100035.55
2018-02-03T16:12:32.792Z,100036.28
2018-02-03T16:14:58.837Z,100038.34
2018-02-03T16:17:24.781Z,100040.48
2018-02-03T16:19:50.742Z,100037.91
2018-02-03T16:22:16.690Z,100041.21
2018-02-03T16:24:42.629Z,100039.95
2018-02-03T16:27:08.599Z,100041.13
2018-02-03T16:29:34.629Z,100037.98
2018-02-03T16:32:00.594Z,100041.53
2018-02-03T16:34:26.540Z,100041.70
2018-02-03T16:36:52.586Z,100048.86
2018-02-03T16:39:18.542Z,100049.70
2018-02-03T16:41:44.489Z,100052.28
2018-02-03T16:44:10.453Z,100055.88
2018-02-03T16:46:36.450Z,100049.64
2018-02-03T16:49:02.402Z,100046.56
2018-02-03T16:51:28.361Z,100051.78
2018-02-03T16:53:54.299Z,100055.64
2018-02-03T16:56:20.269Z,100056.23
2018-02-03T16:58:46.218Z,100058.80
2018-02-03T17:01:12.269Z,100059.16
2018-02-03T17:03:38.215Z,100062.73
2018-02-03T17:06:04.176Z,100065.39
2018-02-03T17:08:30.141Z,100062.64
2018-02-03T17:10:56.085Z,100072.52
2018-02-03T17:13:22.059Z,100067.73
2018-02-03T17:15:48.021Z,100076.79
2018-02-03T17:18:13.959Z,100080.59
2018-02-03T17:20:39.929Z,100075.80
2018-02-03T17:23:05.905Z,100077.55
2018-02-03T17:25:31.862Z,100084.75
2018-02-03T17:27:57.814Z,100088.09
2018-02-03T17:30:23.767Z,100089.97
2018-02-03T17:32:49.724Z,100086.54
2018-02-03T17:35:15.676Z,100087.74
2018-02-03T17:37:41.659Z,100087.80
2018-02-03T17:40:07.622Z,100096.47
2018-02-03T17:42:33.569Z,100099.34
2018-02-03T17:44:59.514Z,100099.86
2018-02-03T17:47:25.530Z,100110.35
2018-02-03T17:49:51.519Z,100113.52
2018-02-03T17:52:17.573Z,100113.12
2018-02-03T17:54:43.538Z,100112.28
2018-02-03T17:57:09.605Z,100113.02
2018-02-03T17:59:35.557Z,100121.33
2018-02-03T18:02:01.530Z,100118.52
2018-02-03T18:04:27.669Z,100119.92
2018-02-03T18:06:53.637Z,100118.17
2018-02-03T18:09:19.589Z,100121.68
2018-02-03T18:11:45.544Z,100127.27
2018-02-03T18:14:11.510Z,100121.56
2018-02-03T18:16:37.554Z,100130.42
2018-02-03T18:19:03.508Z,100125.80
2018-02-03T18:21:29.509Z,100132.51
2018-02-03T18:23:55.444Z,100127.45
2018-02-03T18:26:21.420Z,100131.45
2018-02-03T18:28:47.369Z,100132.10
2018-02-03T18:31:13.322Z,100133.66
2018-02-03T18:33:39.328Z,100134.00
2018-02-03T18:36:05.285Z,100138.26
2018-02-03T18:38:31.263Z,100142.94
2018-02-03T18:40:57.238Z,100141.13
2018-02-03T18:43:23.213Z,100143.99
2018-02-03T18:45:49.149Z,100148.27
2018-02-03T18:48:15.202Z,100143.67
2018-02-03T18:50:41.150Z,100149.53
2018-02-03T18:53:07.121Z,100149.23
2018-02-03T18:55:33.089Z,100150.99
2018-02-03T18:57:59.053Z,100155.70
2018-02-03T19:00:25.022Z,100158.55
2018-02-03T19:02:50.982Z,100154.42
2018-02-03T19:05:17.140Z,100159.52
2018-02-03T19:07:43.081Z,100146.38
2018-02-03T19:10:09.061Z,100156.78
2018-02-03T19:12:35.022Z,100147.91
2018-02-03T19:15:01.167Z,100160.05
2018-02-03T19:17:27.148Z,100149.78
2018-02-03T19:19:53.118Z,100151.59
2018-02-03T19:22:19.060Z,100150.45
2018-02-03T19:24:45.053Z,100148.17
2018-02-03T19:27:11.017Z,100152.81
2018-02-03T19:29:37.053Z,100158.63
2018-02-03T19:32:03.153Z,100159.08
2018-02-03T19:34:29.101Z,100163.67
2018-02-03T19:36:55.077Z,100162.30
2018-02-03T19:39:21.034Z,100164.08
2018-02-03T19:41:47.011Z,100175.35
2018-02-03T19:44:12.956Z,100177.08
2018-02-03T19:46:38.905Z,100177.70
2018-02-03T19:49:04.849Z,100179.77
2018-02-03T19:51:30.799Z,100180.21
2018-02-03T19:53:56.752Z,100185.66
2018-02-03T19:56:22.702Z,100184.89
2018-02-03T19:58:48.698Z,100186.98
2018-02-03T20:01:14.730Z,100184.94
2018-02-03T20:03:40.721Z,100185.16
2018-02-03T20:06:06.673Z,100192.34
2018-02-03T20:08:32.712Z,100191.25
2018-02-03T20:10:58.657Z,100194.06
2018-02-03T20:13:24.609Z,100191.48
2018-02-03T20:15:50.569Z,100189.06
2018-02-03T20:18:16.534Z,100191.20
2018-02-03T20:20:42.498Z,100191.80
2018-02-03T20:23:08.440Z,100188.34
2018-02-03T20:25:34.376Z,100186.20
2018-02-03T20:28:00.336Z,100193.52
2018-02-03T20:30:26.301Z,100200.39
2018-02-03T20:32:52.250Z,100204.11
2018-02-03T20:35:18.194Z,100205.98
2018-02-03T20:37:44.152Z,100208.89
2018-02-03T20:40:10.101Z,100209.47
2018-02-03T20:42:36.357Z,100216.73
2018-02-03T20:45:02.322Z,100213.52
2018-02-03T20:47:28.281Z,100212.70
2018-02-03T20:49:54.597Z,100219.11
2018-02-03T20:52:20.539Z,100225.11
2018-02-03T20:54:46.498Z,100227.10
2018-02-03T20:57:12.455Z,100227.20
2018-02-03T20:59:38.393Z,100228.56
2018-02-03T21:02:04.349Z,100231.11
2018-02-03T21:04:30.362Z,100235.52
2018-02-03T21:06:56.404Z,100237.36
2018-02-03T21:09:22.362Z,100239.65
2018-02-03T21:11:48.337Z,100243.83
2018-02-03T21:14:14.293Z,100244.19
2018-02-03T21:16:40.293Z,100246.14
2018-02-03T21:19:06.240Z,100256.09
2018-02-03T21:21:32.248Z,100260.37
2018-02-03T21:23:58.192Z,100260.37
2018-02-03T21:26:24.176Z,100258.09
2018-02-03T21:28:50.134Z,100263.73
2018-02-03T21:31:16.093Z,100270.45
2018-02-03T21:33:42.049Z,100273.95
2018-02-03T21:36:08.038Z,100274.19
2018-02-03T21:38:34.009Z,100280.59
2018-02-03T21:40:59.966Z,100278.91
2018-02-03T21:43:25.977Z,100279.64
2018-02-03T21:45:51.927Z,100279.69
2018-02-03T21:48:17.962Z,100287.22
2018-02-03T21:50:43.910Z,100290.55
2018-02-03T21:53:09.922Z,100289.41
2018-02-03T21:55:35.885Z,100299.04
2018-02-03T21:58:01.852Z,100297.86
2018-02-03T22:00:27.840Z,100302.09
2018-02-03T22:02:53.776Z,100302.00
2018-02-03T22:05:19.770Z,100303.31
2018-02-03T22:07:45.733Z,100317.20
2018-02-03T22:10:11.729Z,100314.48
2018-02-03T22:12:37.671Z,100314.13
2018-02-03T22:15:03.614Z,100315.72
2018-02-03T22:17:29.585Z,100321.22
2018-02-03T22:19:55.552Z,100325.07
2018-02-03T22:22:21.505Z,100325.89
2018-02-03T22:24:47.438Z,100324.86
2018-02-03T22:27:13.417Z,100327.94
2018-02-03T22:29:39.436Z,100327.27
2018-02-03T22:32:05.384Z,100330.39
2018-02-03T22:34:31.336Z,100331.20
2018-02-03T22:36:57.275Z,100340.67
2018-02-03T22:39:23.250Z,100339.21
2018-02-03T22:41:49.209Z,100348.31
2018-02-03T22:44:15.154Z,100349.35
2018-02-03T22:46:41.109Z,100346.40
2018-02-03T22:49:07.053Z,100345.53
2018-02-03T22:51:33.000Z,100347.12
2018-02-03T22:53:58.949Z,100349.20
2018-02-03T22:56:24.921Z,100348.85
2018-02-03T22:58:50.880Z,100357.70
2018-02-03T23:01:16.832Z,100355.00
2018-02-03T23:03:42.819Z,100363.50
2018-02-03T23:06:08.728Z,100362.78
2018-02-03T23:08:34.685Z,100368.25
2018-02-03T23:11:00.655Z,100367.38
2018-02-03T23:13:26.642Z,100368.59
2018-02-03T23:15:52.578Z,100372.23
2018-02-03T23:18:18.558Z,100373.19
2018-02-03T23:20:44.505Z,100378.31
2018-02-03T23:23:10.437Z,100384.34
2018-02-03T23:25:36.398Z,100378.75
2018-02-03T23:28:02.349Z,100384.04
2018-02-03T23:30:28.403Z,100385.94
2018-02-03T23:32:54.368Z,100383.49
2018-02-03T23:35:20.330Z,100387.62
2018-02-03T23:37:46.286Z,100393.66
2018-02-03T23:40:12.234Z,100394.75
2018-02-03T23:42:38.188Z,100397.55
2018-02-03T23:45:04.170Z,100398.19
2018-02-03T23:47:30.166Z,100399.47
2018-02-03T23:49:56.113Z,100400.77
2018-02-03T23:52:22.069Z,100406.95
2018-02-03T23:54:48.017Z,100410.27
2018-02-03T23:57:13.950Z,100413.67
2018-02-03T23:59:39.934Z,100412.23
